createdAt,value
2018-12-15T00:02:06.517Z,3.79
2018-12-15T00:04:35.548Z,3.98
2018-12-15T00:07:04.736Z,3.85
2018-12-15T00:09:33.676Z,3.72
2018-12-15T00:12:02.932Z,3.70
2018-12-15T00:14:31.896Z,3.81
2018-12-15T00:17:05.745Z,3.77
2018-12-15T00:19:31.884Z,3.75
2018-12-15T00:22:00.940Z,3.77
2018-12-15T00:24:29.934Z,3.94
2018-12-15T00:26:58.988Z,3.96
2018-12-15T00:29:27.916Z,4.02
2018-12-15T00:31:57.053Z,4.22
2018-12-15T00:34:25.857Z,4.11
2018-12-15T00:36:54.742Z,4.06
2018-12-15T00:39:23.619Z,3.93
2018-12-15T00:41:52.624Z,3.89
2018-12-15T00:44:21.501Z,3.85
2018-12-15T00:46:50.547Z,3.83
2018-12-15T00:49:19.170Z,3.93
2018-12-15T00:51:48.007Z,4.00
2018-12-15T00:54:16.976Z,4.08
2018-12-15T00:56:45.968Z,4.21
2018-12-15T00:59:14.843Z,4.11
2018-12-15T01:01:43.766Z,4.02
2018-12-15T01:04:12.489Z,4.04
2018-12-15T01:06:41.175Z,4.11
2018-12-15T01:09:10.092Z,3.93
2018-12-15T01:11:38.995Z,3.86
2018-12-15T01:14:07.998Z,3.85
2018-12-15T01:16:36.948Z,3.91
2018-12-15T01:19:06.007Z,3.99
2018-12-15T01:21:34.731Z,4.12
2018-12-15T01:24:03.493Z,4.10
2018-12-15T01:26:32.540Z,4.05
2018-12-15T01:29:01.414Z,3.96
2018-12-15T01:31:30.416Z,3.91
2018-12-15T01:33:59.429Z,3.76
2018-12-15T01:36:28.427Z,3.58
2018-12-15T01:38:57.407Z,3.57
2018-12-15T01:41:26.193Z,3.54
2018-12-15T01:43:55.144Z,3.70
2018-12-15T01:46:24.529Z,3.68
2018-12-15T01:48:53.579Z,3.68
2018-12-15T01:51:22.339Z,3.55
2018-12-15T01:53:51.344Z,3.67
2018-12-15T01:56:20.179Z,3.56
2018-12-15T01:58:49.240Z,3.59
2018-12-15T02:01:18.068Z,3.55
2018-12-15T02:03:47.054Z,3.53
2018-12-15T02:06:15.756Z,3.61
2018-12-15T02:08:44.683Z,3.69
2018-12-15T02:11:13.684Z,3.60
2018-12-15T02:13:42.716Z,3.52
2018-12-15T02:16:11.372Z,3.51
2018-12-15T02:18:40.276Z,3.46
2018-12-15T02:21:09.064Z,3.40
2018-12-15T02:23:38.139Z,3.32
2018-12-15T02:26:07.217Z,3.41
2018-12-15T02:28:36.024Z,3.38
2018-12-15T02:31:05.061Z,3.42
2018-12-15T02:33:34.007Z,3.56
2018-12-15T02:36:03.016Z,3.70
2018-12-15T02:38:31.977Z,3.69
2018-12-15T02:41:01.025Z,3.71
2018-12-15T02:43:30.016Z,3.70
2018-12-15T02:45:59.123Z,3.69
2018-12-15T02:48:27.971Z,3.69
2018-12-15T02:50:56.942Z,3.74
2018-12-15T02:53:25.738Z,3.76
2018-12-15T02:55:54.886Z,3.71
2018-12-15T02:58:23.955Z,3.76
2018-12-15T03:00:52.976Z,3.74
2018-12-15T03:03:21.798Z,3.82
2018-12-15T03:05:50.802Z,3.66
2018-12-15T03:08:19.720Z,3.60
2018-12-15T03:10:48.571Z,3.67
2018-12-15T03:13:17.496Z,3.74
2018-12-15T03:15:46.428Z,3.77
2018-12-15T03:18:15.414Z,3.87
2018-12-15T03:20:53.975Z,3.92
2018-12-15T03:23:22.900Z,4.15
2018-12-15T03:25:51.941Z,3.99
2018-12-15T03:28:20.922Z,3.82
2018-12-15T03:30:49.907Z,3.66
2018-12-15T03:33:18.919Z,3.61
2018-12-15T03:35:47.915Z,3.56
2018-12-15T03:38:16.798Z,3.64
2018-12-15T03:40:45.459Z,3.60
2018-12-15T03:43:14.456Z,3.49
2018-12-15T03:45:43.310Z,3.53
2018-12-15T03:48:12.252Z,3.65
2018-12-15T03:50:41.308Z,3.79
2018-12-15T03:53:09.937Z,3.89
2018-12-15T03:55:38.681Z,3.88
2018-12-15T03:58:07.633Z,3.99
2018-12-15T04:00:36.663Z,4.03
2018-12-15T04:03:05.634Z,4.07
2018-12-15T04:05:34.629Z,4.10
2018-12-15T04:08:03.805Z,4.03
2018-12-15T04:10:32.545Z,4.18
2018-12-15T04:13:01.226Z,4.13
2018-12-15T04:15:30.140Z,4.18
2018-12-15T04:18:03.711Z,4.21
2018-12-15T04:20:29.716Z,4.17
2018-12-15T04:22:58.763Z,4.33
2018-12-15T04:25:27.778Z,4.32
2018-12-15T04:27:56.808Z,4.24
2018-12-15T04:30:25.529Z,4.22
2018-12-15T04:32:54.176Z,4.16
2018-12-15T04:35:23.232Z,4.13
2018-12-15T04:37:52.220Z,4.11
2018-12-15T04:40:21.615Z,4.17
2018-12-15T04:42:50.492Z,4.20
2018-12-15T04:45:19.401Z,4.21
2018-12-15T04:47:48.136Z,4.25
2018-12-15T04:50:17.139Z,4.36
2018-12-15T04:52:45.983Z,4.46
2018-12-15T04:55:14.952Z,4.54
2018-12-15T04:57:43.871Z,4.49
2018-12-15T05:00:12.829Z,4.45
2018-12-15T05:02:44.052Z,4.36
2018-12-15T05:05:12.957Z,4.27
2018-12-15T05:07:42.020Z,4.06
2018-12-15T05:10:10.881Z,3.83
2018-12-15T05:12:39.603Z,3.93
2018-12-15T05:15:08.749Z,4.06
2018-12-15T05:17:37.941Z,4.02
2018-12-15T05:20:07.454Z,3.95
2018-12-15T05:22:36.802Z,4.00
2018-12-15T05:25:06.816Z,4.08
2018-12-15T05:27:35.480Z,4.15
2018-12-15T05:30:05.075Z,4.27
2018-12-15T05:32:33.750Z,4.18
2018-12-15T05:35:02.525Z,4.22
2018-12-15T05:37:31.516Z,4.19
2018-12-15T05:40:00.400Z,4.17
2018-12-15T05:42:29.458Z,4.18
2018-12-15T05:44:58.590Z,4.10
2018-12-15T05:47:27.577Z,4.17
2018-12-15T05:49:56.627Z,4.09
2018-12-15T05:52:25.352Z,4.16
2018-12-15T05:54:54.337Z,4.27
2018-12-15T05:57:23.284Z,4.32
2018-12-15T05:59:52.295Z,4.24
2018-12-15T06:02:21.667Z,4.31
2018-12-15T06:04:51.332Z,4.17
2018-12-15T06:07:20.248Z,4.07
2018-12-15T06:09:48.899Z,3.98
2018-12-15T06:12:17.997Z,3.97
2018-12-15T06:14:46.914Z,4.02
2018-12-15T06:17:15.973Z,4.04
2018-12-15T06:19:44.926Z,4.07
2018-12-15T06:22:13.991Z,4.20
2018-12-15T06:24:42.962Z,4.28
2018-12-15T06:27:11.699Z,4.29
2018-12-15T06:29:40.822Z,4.28
2018-12-15T06:32:09.744Z,4.32
2018-12-15T06:34:38.731Z,4.41
2018-12-15T06:37:07.746Z,4.43
2018-12-15T06:39:36.779Z,4.44
2018-12-15T06:42:05.968Z,4.41
2018-12-15T06:44:35.063Z,4.58
2018-12-15T06:47:04.151Z,4.58
2018-12-15T06:49:33.345Z,4.51
2018-12-15T06:52:02.439Z,4.42
2018-12-15T06:54:31.501Z,4.55
2018-12-15T06:57:00.441Z,4.50
2018-12-15T06:59:29.297Z,4.44
2018-12-15T07:01:58.284Z,4.57
2018-12-15T07:04:26.886Z,4.57
2018-12-15T07:06:55.876Z,4.63
2018-12-15T07:09:24.831Z,4.71
2018-12-15T07:11:53.887Z,4.71
2018-12-15T07:14:22.936Z,4.70
2018-12-15T07:16:51.963Z,4.73
2018-12-15T07:19:20.617Z,4.72
2018-12-15T07:21:49.574Z,4.91
2018-12-15T07:24:18.482Z,4.92
2018-12-15T07:26:47.138Z,4.98
2018-12-15T07:29:16.215Z,5.10
2018-12-15T07:31:44.826Z,5.12
2018-12-15T07:34:13.949Z,5.14
2018-12-15T07:36:42.661Z,5.12
2018-12-15T07:39:11.633Z,5.15
2018-12-15T07:41:40.379Z,5.14
2018-12-15T07:44:09.336Z,5.17
2018-12-15T07:46:38.032Z,5.33
2018-12-15T07:49:07.011Z,5.38
2018-12-15T07:51:36.018Z,5.40
2018-12-15T07:54:04.899Z,5.30
2018-12-15T07:56:33.576Z,5.19
2018-12-15T07:59:02.668Z,5.19
2018-12-15T08:01:31.625Z,5.23
2018-12-15T08:04:00.624Z,5.18
2018-12-15T08:06:29.648Z,5.23
2018-12-15T08:08:58.557Z,5.18
2018-12-15T08:11:32.576Z,5.17
2018-12-15T08:14:06.709Z,5.28
2018-12-15T08:16:35.778Z,5.32
2018-12-15T08:19:05.929Z,5.38
2018-12-15T08:21:34.964Z,5.42
2018-12-15T08:24:04.148Z,5.40
2018-12-15T08:26:33.086Z,5.56
2018-12-15T08:29:01.770Z,5.41
2018-12-15T08:31:30.719Z,5.34
2018-12-15T08:33:59.510Z,5.50
2018-12-15T08:36:28.477Z,5.41
2018-12-15T08:38:57.272Z,5.38
2018-12-15T08:41:26.140Z,5.38
2018-12-15T08:43:55.079Z,5.42
2018-12-15T08:46:24.131Z,5.44
2018-12-15T08:48:53.288Z,5.47
2018-12-15T08:51:22.473Z,5.41
2018-12-15T08:53:51.356Z,5.56
2018-12-15T08:56:20.290Z,5.64
2018-12-15T08:58:49.320Z,5.57
2018-12-15T09:01:17.974Z,5.64
2018-12-15T09:03:46.736Z,5.73
2018-12-15T09:06:15.717Z,5.72
2018-12-15T09:08:44.676Z,5.78
2018-12-15T09:11:13.554Z,5.89
2018-12-15T09:13:42.466Z,5.94
2018-12-15T09:16:11.537Z,5.98
2018-12-15T09:18:40.199Z,6.19
2018-12-15T09:21:08.996Z,6.05
2018-12-15T09:23:37.741Z,6.04
2018-12-15T09:26:06.790Z,6.09
2018-12-15T09:28:35.849Z,6.15
2018-12-15T09:31:04.888Z,6.28
2018-12-15T09:33:33.565Z,6.25
2018-12-15T09:36:02.478Z,6.34
2018-12-15T09:38:31.070Z,6.38
2018-12-15T09:40:59.960Z,6.42
2018-12-15T09:43:28.892Z,6.24
2018-12-15T09:45:57.813Z,6.24
2018-12-15T09:48:26.797Z,6.30
2018-12-15T09:50:55.687Z,6.29
2018-12-15T09:53:24.542Z,6.22
2018-12-15T09:55:53.712Z,6.16
2018-12-15T09:58:22.463Z,6.12
2018-12-15T10:00:51.184Z,6.19
2018-12-15T10:03:20.285Z,6.18
2018-12-15T10:05:49.225Z,6.25
2018-12-15T10:08:18.138Z,6.35
2018-12-15T10:10:46.807Z,6.38
2018-12-15T10:13:15.839Z,6.49
2018-12-15T10:15:44.803Z,6.35
2018-12-15T10:18:13.558Z,6.44
2018-12-15T10:20:42.587Z,6.38
2018-12-15T10:23:11.649Z,6.41
2018-12-15T10:25:40.381Z,6.51
2018-12-15T10:28:09.397Z,6.51
2018-12-15T10:30:43.533Z,6.44
2018-12-15T10:33:12.543Z,6.44
2018-12-15T10:35:41.513Z,6.48
2018-12-15T10:38:10.544Z,6.52
2018-12-15T10:40:39.588Z,6.51
2018-12-15T10:43:08.541Z,6.49
2018-12-15T10:45:37.409Z,6.54
2018-12-15T10:48:06.320Z,6.68
2018-12-15T10:50:35.276Z,6.71
2018-12-15T10:53:04.044Z,6.75
2018-12-15T10:55:32.951Z,6.82
2018-12-15T10:58:01.877Z,6.93
2018-12-15T11:00:35.988Z,6.66
2018-12-15T11:03:05.187Z,6.44
2018-12-15T11:05:34.220Z,6.54
2018-12-15T11:08:03.216Z,6.54
2018-12-15T11:10:32.245Z,6.63
2018-12-15T11:13:01.047Z,6.61
2018-12-15T11:15:29.953Z,6.61
2018-12-15T11:17:58.914Z,6.67
2018-12-15T11:20:27.909Z,6.74
2018-12-15T11:22:57.004Z,6.60
2018-12-15T11:25:26.052Z,6.62
2018-12-15T11:27:54.987Z,6.79
2018-12-15T11:30:23.979Z,6.87
2018-12-15T11:32:53.020Z,6.95
2018-12-15T11:35:21.807Z,6.94
2018-12-15T11:37:50.857Z,6.85
2018-12-15T11:40:19.904Z,6.82
2018-12-15T11:42:48.970Z,6.80
2018-12-15T11:45:18.041Z,6.80
2018-12-15T11:47:47.007Z,6.64
2018-12-15T11:50:16.011Z,6.60
2018-12-15T11:52:45.014Z,6.55
2018-12-15T11:55:13.880Z,6.61
2018-12-15T11:57:42.708Z,6.52
2018-12-15T12:00:12.587Z,6.42
2018-12-15T12:02:41.797Z,6.39
2018-12-15T12:05:10.729Z,6.38
2018-12-15T12:07:39.848Z,6.26
2018-12-15T12:10:09.086Z,6.24
2018-12-15T12:12:38.076Z,6.18
2018-12-15T12:15:07.256Z,6.14
2018-12-15T12:17:36.332Z,6.19
2018-12-15T12:20:07.073Z,6.28
2018-12-15T12:22:35.923Z,6.46
2018-12-15T12:25:05.306Z,6.49
2018-12-15T12:27:34.167Z,6.56
2018-12-15T12:30:03.121Z,6.58
2018-12-15T12:32:32.605Z,6.63
2018-12-15T12:35:01.624Z,6.66
2018-12-15T12:37:30.458Z,6.83
2018-12-15T12:39:59.395Z,6.83
2018-12-15T12:42:28.157Z,6.87
2018-12-15T12:44:57.049Z,6.90
2018-12-15T12:47:26.043Z,6.97
2018-12-15T12:49:56.935Z,6.93
2018-12-15T12:52:25.813Z,6.89
2018-12-15T12:54:54.890Z,6.80
2018-12-15T12:57:23.958Z,6.82
2018-12-15T12:59:52.824Z,6.82
2018-12-15T13:02:21.685Z,6.82
2018-12-15T13:04:50.773Z,6.81
2018-12-15T13:07:19.862Z,6.81
2018-12-15T13:09:48.822Z,6.81
2018-12-15T13:12:17.888Z,6.78
2018-12-15T13:14:46.913Z,6.75
2018-12-15T13:17:16.010Z,6.79
2018-12-15T13:19:44.714Z,6.75
2018-12-15T13:22:14.777Z,6.76
2018-12-15T13:24:43.669Z,6.78
2018-12-15T13:27:12.425Z,6.73
2018-12-15T13:29:41.193Z,6.73
2018-12-15T13:32:10.144Z,6.83
2018-12-15T13:34:39.203Z,6.76
2018-12-15T13:37:08.277Z,6.78
2018-12-15T13:39:37.251Z,6.78
2018-12-15T13:42:07.162Z,6.71
2018-12-15T13:44:36.230Z,6.67
2018-12-15T13:47:04.867Z,6.65
2018-12-15T13:49:33.991Z,6.62
2018-12-15T13:52:03.042Z,6.52
2018-12-15T13:54:32.191Z,6.46
2018-12-15T13:57:01.222Z,6.57
2018-12-15T13:59:30.274Z,6.53
2018-12-15T14:01:59.163Z,6.48
2018-12-15T14:04:27.962Z,6.47
2018-12-15T14:06:56.840Z,6.54
2018-12-15T14:09:25.604Z,6.47
2018-12-15T14:11:54.541Z,6.40
2018-12-15T14:14:23.517Z,6.42
2018-12-15T14:16:52.554Z,6.34
2018-12-15T14:19:21.550Z,6.27
2018-12-15T14:21:50.571Z,6.23
2018-12-15T14:24:19.403Z,6.20
2018-12-15T14:26:48.516Z,6.24
2018-12-15T14:29:17.485Z,6.26
2018-12-15T14:31:46.435Z,6.34
2018-12-15T14:34:15.592Z,6.34
2018-12-15T14:36:44.344Z,6.33
2018-12-15T14:39:13.376Z,6.40
2018-12-15T14:41:42.423Z,6.31
2018-12-15T14:44:11.309Z,6.29
2018-12-15T14:46:40.311Z,6.34
2018-12-15T14:49:09.287Z,6.32
2018-12-15T14:51:38.311Z,6.23
2018-12-15T14:54:07.088Z,6.14
2018-12-15T14:56:36.100Z,6.16
2018-12-15T14:59:11.429Z,6.14
2018-12-15T15:01:40.145Z,6.06
2018-12-15T15:04:09.217Z,6.01
2018-12-15T15:06:38.245Z,6.01
2018-12-15T15:09:07.810Z,6.06
2018-12-15T15:11:36.886Z,6.04
2018-12-15T15:14:05.811Z,5.94
2018-12-15T15:16:34.863Z,6.02
2018-12-15T15:19:03.705Z,5.79
2018-12-15T15:21:32.698Z,5.81
2018-12-15T15:24:01.752Z,5.83
2018-12-15T15:26:30.781Z,5.96
2018-12-15T15:28:59.836Z,5.98
2018-12-15T15:31:28.695Z,5.96
2018-12-15T15:33:58.204Z,5.99
2018-12-15T15:36:28.179Z,5.95
2018-12-15T15:38:58.218Z,5.92
2018-12-15T15:41:27.104Z,5.95
2018-12-15T15:43:56.036Z,5.89
2018-12-15T15:46:24.739Z,5.82
2018-12-15T15:48:53.432Z,5.73
2018-12-15T15:51:22.302Z,5.75
2018-12-15T15:53:51.116Z,5.77
2018-12-15T15:56:19.945Z,6.04
2018-12-15T15:58:48.888Z,5.98
2018-12-15T16:01:17.795Z,5.84
2018-12-15T16:03:46.737Z,5.76
2018-12-15T16:06:15.826Z,5.74
2018-12-15T16:08:44.763Z,5.69
2018-12-15T16:11:14.140Z,5.47
2018-12-15T16:13:43.127Z,5.48
2018-12-15T16:16:22.863Z,5.60
2018-12-15T16:18:51.964Z,5.71
2018-12-15T16:21:20.979Z,5.70
2018-12-15T16:23:50.057Z,5.59
2018-12-15T16:26:18.920Z,5.62
2018-12-15T16:28:47.838Z,5.48
2018-12-15T16:31:16.771Z,5.48
2018-12-15T16:33:46.032Z,5.47
2018-12-15T16:36:15.061Z,5.44
2018-12-15T16:38:43.865Z,5.48
2018-12-15T16:41:12.549Z,5.49
2018-12-15T16:43:41.477Z,5.56
2018-12-15T16:46:10.468Z,5.53
2018-12-15T16:48:39.388Z,5.70
2018-12-15T16:51:08.352Z,5.82
2018-12-15T16:53:37.622Z,5.67
2018-12-15T16:56:06.499Z,5.84
2018-12-15T16:58:35.412Z,5.78
2018-12-15T17:01:04.592Z,5.76
2018-12-15T17:03:33.599Z,5.67
2018-12-15T17:06:02.707Z,5.61
2018-12-15T17:08:31.440Z,5.58
2018-12-15T17:11:00.604Z,5.53
2018-12-15T17:13:29.701Z,5.35
2018-12-15T17:15:58.430Z,5.34
2018-12-15T17:18:27.192Z,5.29
2018-12-15T17:20:56.863Z,5.32
2018-12-15T17:23:26.910Z,5.35
2018-12-15T17:25:55.642Z,5.44
2018-12-15T17:28:24.720Z,5.56
2018-12-15T17:30:53.816Z,5.68
2018-12-15T17:33:22.747Z,5.66
2018-12-15T17:35:51.645Z,5.59
2018-12-15T17:38:20.573Z,5.58
2018-12-15T17:40:49.634Z,5.36
2018-12-15T17:43:18.635Z,5.33
2018-12-15T17:45:47.543Z,5.30
2018-12-15T17:48:17.203Z,5.32
2018-12-15T17:50:47.041Z,5.27
2018-12-15T17:53:16.035Z,5.42
2018-12-15T17:55:45.009Z,5.42
2018-12-15T17:58:14.769Z,5.38
2018-12-15T18:00:44.231Z,5.50
2018-12-15T18:03:13.219Z,5.61
2018-12-15T18:05:42.156Z,5.49
2018-12-15T18:08:11.168Z,5.42
2018-12-15T18:10:40.260Z,5.37
2018-12-15T18:13:10.013Z,5.34
2018-12-15T18:15:38.953Z,5.38
2018-12-15T18:18:07.996Z,5.65
2018-12-15T18:20:37.140Z,5.68
2018-12-15T18:23:05.961Z,5.66
2018-12-15T18:25:34.966Z,5.60
2018-12-15T18:28:04.153Z,5.44
2018-12-15T18:30:33.161Z,5.46
2018-12-15T18:33:02.153Z,5.35
2018-12-15T18:35:31.722Z,5.35
2018-12-15T18:38:00.864Z,5.45
2018-12-15T18:40:29.633Z,5.41
2018-12-15T18:42:59.164Z,5.40
2018-12-15T18:45:28.075Z,5.54
2018-12-15T18:47:57.186Z,5.49
2018-12-15T18:50:26.187Z,5.64
2018-12-15T18:52:55.319Z,5.55
2018-12-15T18:55:25.220Z,5.53
2018-12-15T18:57:54.272Z,5.56
2018-12-15T19:00:23.017Z,5.62
2018-12-15T19:02:52.017Z,5.60
2018-12-15T19:05:20.838Z,5.55
2018-12-15T19:07:49.799Z,5.41
2018-12-15T19:10:18.888Z,5.30
2018-12-15T19:12:47.906Z,5.46
2018-12-15T19:15:16.867Z,5.28
2018-12-15T19:17:45.637Z,5.28
2018-12-15T19:20:14.456Z,5.29
2018-12-15T19:22:43.576Z,5.36
2018-12-15T19:25:13.100Z,5.46
2018-12-15T19:27:42.187Z,5.42
2018-12-15T19:30:12.004Z,5.64
2018-12-15T19:32:42.142Z,5.51
2018-12-15T19:35:11.666Z,5.61
2018-12-15T19:37:41.990Z,5.63
2018-12-15T19:40:10.995Z,5.69
2018-12-15T19:42:40.774Z,5.79
2018-12-15T19:45:09.893Z,5.69
2018-12-15T19:47:39.708Z,5.58
2018-12-15T19:50:09.339Z,5.72
2018-12-15T19:52:38.292Z,5.82
2018-12-15T19:55:07.564Z,5.81
2018-12-15T19:57:36.503Z,5.67
2018-12-15T20:00:05.940Z,5.62
2018-12-15T20:02:35.055Z,5.60
2018-12-15T20:05:04.045Z,5.51
2018-12-15T20:07:33.095Z,5.42
2018-12-15T20:10:02.209Z,5.36
2018-12-15T20:12:31.119Z,5.26
2018-12-15T20:15:00.188Z,5.33
2018-12-15T20:17:29.251Z,5.42
2018-12-15T20:19:58.241Z,5.35
2018-12-15T20:22:26.927Z,5.40
2018-12-15T20:24:56.602Z,5.44
2018-12-15T20:27:25.628Z,5.33
2018-12-15T20:29:54.640Z,5.35
2018-12-15T20:32:23.576Z,5.26
2018-12-15T20:34:52.543Z,5.30
2018-12-15T20:37:21.528Z,5.40
2018-12-15T20:39:50.189Z,5.35
2018-12-15T20:42:18.923Z,5.54
2018-12-15T20:44:48.484Z,5.42
2018-12-15T20:47:17.419Z,5.36
2018-12-15T20:49:46.045Z,5.38
2018-12-15T20:52:15.056Z,5.35
2018-12-15T20:54:44.057Z,5.59
2018-12-15T20:57:13.032Z,5.68
2018-12-15T20:59:41.887Z,5.62
2018-12-15T21:02:10.577Z,5.57
2018-12-15T21:04:39.585Z,5.50
2018-12-15T21:07:09.162Z,5.58
2018-12-15T21:09:38.188Z,5.44
2018-12-15T21:12:07.192Z,5.57
2018-12-15T21:14:36.260Z,5.53
2018-12-15T21:17:05.186Z,5.57
2018-12-15T21:19:33.960Z,5.30
2018-12-15T21:22:02.848Z,5.45
2018-12-15T21:24:31.840Z,5.46
2018-12-15T21:27:00.872Z,5.25
2018-12-15T21:29:29.490Z,5.41
2018-12-15T21:31:58.530Z,5.38
2018-12-15T21:34:27.546Z,5.44
2018-12-15T21:36:56.211Z,5.39
2018-12-15T21:39:24.881Z,5.28
2018-12-15T21:41:53.872Z,5.26
2018-12-15T21:44:23.024Z,5.25
2018-12-15T21:46:51.923Z,5.28
2018-12-15T21:49:20.586Z,5.29
2018-12-15T21:51:56.010Z,5.26
2018-12-15T21:54:20.141Z,5.25
2018-12-15T21:56:48.983Z,5.31
2018-12-15T21:59:18.036Z,5.29
2018-12-15T22:01:47.086Z,5.26
2018-12-15T22:04:16.069Z,5.19
2018-12-15T22:06:45.137Z,5.19
2018-12-15T22:09:14.148Z,5.15
2018-12-15T22:11:43.020Z,5.12
2018-12-15T22:14:12.020Z,5.13
2018-12-15T22:16:41.034Z,5.17
2018-12-15T22:19:10.008Z,5.15
2018-12-15T22:21:39.068Z,5.20
2018-12-15T22:24:07.782Z,5.35
2018-12-15T22:26:36.738Z,5.26
2018-12-15T22:29:05.668Z,5.34
2018-12-15T22:31:34.551Z,5.41
2018-12-15T22:34:03.340Z,5.39
2018-12-15T22:36:32.356Z,5.39
2018-12-15T22:39:01.334Z,5.39
2018-12-15T22:41:30.148Z,5.39
2018-12-15T22:43:58.869Z,5.43
2018-12-15T22:46:27.780Z,5.40
2018-12-15T22:48:56.623Z,5.46
2018-12-15T22:51:25.563Z,5.47
2018-12-15T22:53:54.447Z,5.45
2018-12-15T22:56:23.242Z,5.39
2018-12-15T22:58:52.047Z,5.31
2018-12-15T23:01:21.115Z,5.29
2018-12-15T23:03:50.040Z,5.31
2018-12-15T23:06:18.775Z,5.29
2018-12-15T23:08:47.668Z,5.26
2018-12-15T23:11:16.863Z,5.24
2018-12-15T23:13:45.739Z,5.17
2018-12-15T23:16:14.582Z,5.08
2018-12-15T23:18:43.352Z,5.01
2018-12-15T23:21:12.098Z,4.99
2018-12-15T23:23:40.825Z,4.99
2018-12-15T23:26:09.803Z,5.01
2018-12-15T23:28:38.601Z,5.06
2018-12-15T23:31:07.471Z,5.09
2018-12-15T23:33:36.279Z,5.10
2018-12-15T23:36:05.122Z,5.06
2018-12-15T23:38:34.078Z,5.01
2018-12-15T23:41:02.951Z,5.03
2018-12-15T23:43:31.927Z,5.07
2018-12-15T23:46:00.836Z,5.07
2018-12-15T23:48:29.808Z,5.18
2018-12-15T23:50:58.768Z,5.18
2018-12-15T23:53:27.990Z,5.18
2018-12-15T23:55:56.701Z,5.33
2018-12-15T23:58:25.652Z,5.31
